sensor_id;sensor_type;location;lat;lon;timestamp;pressure;altitude;pressure_sealevel;temperature;humidity
81812;BME280;71243;51.848;5.768;2024-02-21T00:00:45;102281.16;;;9.82;90.33
81812;BME280;71243;51.848;5.768;2024-02-21T00:03:10;102284.84;;;9.92;89.83
81812;BME280;71243;51.848;5.768;2024-02-21T00:05:36;102286.03;;;9.76;90.23
81812;BME280;71243;51.848;5.768;2024-02-21T00:08:02;102275.56;;;9.87;89.83
81812;BME280;71243;51.848;5.768;2024-02-21T00:10:27;102272.81;;;9.88;90.01
81812;BME280;71243;51.848;5.768;2024-02-21T00:12:52;102267.31;;;9.91;89.93
81812;BME280;71243;51.848;5.768;2024-02-21T00:15:18;102273.53;;;9.90;89.80
81812;BME280;71243;51.848;5.768;2024-02-21T00:17:43;102269.41;;;9.86;89.87
81812;BME280;71243;51.848;5.768;2024-02-21T00:20:09;102257.72;;;9.78;90.30
81812;BME280;71243;51.848;5.768;2024-02-21T00:22:34;102261.19;;;9.91;89.94
81812;BME280;71243;51.848;5.768;2024-02-21T00:25:00;102248.22;;;9.88;90.00
81812;BME280;71243;51.848;5.768;2024-02-21T00:27:25;102250.88;;;9.88;89.79
81812;BME280;71243;51.848;5.768;2024-02-21T00:29:50;102252.75;;;9.86;89.97
81812;BME280;71243;51.848;5.768;2024-02-21T00:32:15;102248.53;;;9.83;89.98
81812;BME280;71243;51.848;5.768;2024-02-21T00:34:41;102240.81;;;9.93;89.88
81812;BME280;71243;51.848;5.768;2024-02-21T00:37:06;102250.13;;;9.86;90.06
81812;BME280;71243;51.848;5.768;2024-02-21T00:39:31;102247.78;;;9.81;90.05
81812;BME280;71243;51.848;5.768;2024-02-21T00:41:57;102235.34;;;9.71;90.78
81812;BME280;71243;51.848;5.768;2024-02-21T00:44:22;102235.44;;;9.82;90.50
81812;BME280;71243;51.848;5.768;2024-02-21T00:46:47;102219.28;;;9.86;90.17
81812;BME280;71243;51.848;5.768;2024-02-21T00:49:12;102211.88;;;9.91;89.88
81812;BME280;71243;51.848;5.768;2024-02-21T00:51:38;102211.19;;;9.77;90.42
81812;BME280;71243;51.848;5.768;2024-02-21T00:54:03;102223.41;;;9.78;90.42
81812;BME280;71243;51.848;5.768;2024-02-21T00:56:28;102210.66;;;9.84;90.15
81812;BME280;71243;51.848;5.768;2024-02-21T00:58:54;102216.22;;;9.80;90.26
81812;BME280;71243;51.848;5.768;2024-02-21T01:01:23;102212.66;;;9.81;90.25
81812;BME280;71243;51.848;5.768;2024-02-21T01:03:49;102204.81;;;9.79;90.33
81812;BME280;71243;51.848;5.768;2024-02-21T01:06:14;102204.78;;;9.68;91.02
81812;BME280;71243;51.848;5.768;2024-02-21T01:08:39;102215.72;;;9.75;90.60
81812;BME280;71243;51.848;5.768;2024-02-21T01:11:05;102218.13;;;9.78;90.53
81812;BME280;71243;51.848;5.768;2024-02-21T01:13:30;102213.19;;;9.73;90.77
81812;BME280;71243;51.848;5.768;2024-02-21T01:15:55;102209.59;;;9.74;90.71
81812;BME280;71243;51.848;5.768;2024-02-21T01:18:20;102209.09;;;9.69;90.88
81812;BME280;71243;51.848;5.768;2024-02-21T01:20:46;102201.06;;;9.71;90.65
81812;BME280;71243;51.848;5.768;2024-02-21T01:23:11;102202.53;;;9.75;90.63
81812;BME280;71243;51.848;5.768;2024-02-21T01:25:36;102197.47;;;9.72;90.83
81812;BME280;71243;51.848;5.768;2024-02-21T01:28:01;102194.97;;;9.58;91.08
81812;BME280;71243;51.848;5.768;2024-02-21T01:30:26;102187.84;;;9.71;90.75
81812;BME280;71243;51.848;5.768;2024-02-21T01:32:52;102193.63;;;9.76;90.37
81812;BME280;71243;51.848;5.768;2024-02-21T01:35:17;102178.88;;;9.73;90.22
81812;BME280;71243;51.848;5.768;2024-02-21T01:37:42;102183.16;;;9.63;90.64
81812;BME280;71243;51.848;5.768;2024-02-21T01:40:08;102178.81;;;9.62;90.63
81812;BME280;71243;51.848;5.768;2024-02-21T01:42:37;102177.44;;;9.57;90.99
81812;BME280;71243;51.848;5.768;2024-02-21T01:45:03;102177.13;;;9.61;90.99
81812;BME280;71243;51.848;5.768;2024-02-21T01:47:28;102175.13;;;9.65;90.54
81812;BME280;71243;51.848;5.768;2024-02-21T01:49:54;102173.91;;;9.69;90.50
81812;BME280;71243;51.848;5.768;2024-02-21T01:52:19;102183.03;;;9.65;90.76
81812;BME280;71243;51.848;5.768;2024-02-21T01:54:46;102183.66;;;9.68;90.43
81812;BME280;71243;51.848;5.768;2024-02-21T01:57:12;102188.94;;;9.68;90.43
81812;BME280;71243;51.848;5.768;2024-02-21T01:59:38;102189.34;;;9.75;90.23
81812;BME280;71243;51.848;5.768;2024-02-21T02:02:03;102177.31;;;9.71;90.44
81812;BME280;71243;51.848;5.768;2024-02-21T02:04:28;102177.31;;;9.71;90.20
81812;BME280;71243;51.848;5.768;2024-02-21T02:06:54;102183.22;;;9.62;90.55
81812;BME280;71243;51.848;5.768;2024-02-21T02:09:20;102171.97;;;9.60;90.76
81812;BME280;71243;51.848;5.768;2024-02-21T02:11:45;102168.09;;;9.76;90.17
81812;BME280;71243;51.848;5.768;2024-02-21T02:14:10;102174.78;;;9.69;90.42
81812;BME280;71243;51.848;5.768;2024-02-21T02:16:35;102171.19;;;9.70;90.23
81812;BME280;71243;51.848;5.768;2024-02-21T02:19:00;102166.13;;;9.67;90.44
81812;BME280;71243;51.848;5.768;2024-02-21T02:21:29;102157.38;;;9.67;90.23
81812;BME280;71243;51.848;5.768;2024-02-21T02:23:57;102157.31;;;9.56;90.64
81812;BME280;71243;51.848;5.768;2024-02-21T02:26:22;102159.41;;;9.63;90.37
81812;BME280;71243;51.848;5.768;2024-02-21T02:28:47;102157.66;;;9.75;90.01
81812;BME280;71243;51.848;5.768;2024-02-21T02:31:13;102158.09;;;9.69;90.13
81812;BME280;71243;51.848;5.768;2024-02-21T02:33:38;102148.22;;;9.60;90.35
81812;BME280;71243;51.848;5.768;2024-02-21T02:36:03;102143.66;;;9.62;90.43
81812;BME280;71243;51.848;5.768;2024-02-21T02:38:29;102134.44;;;9.67;90.36
81812;BME280;71243;51.848;5.768;2024-02-21T02:40:54;102131.09;;;9.65;90.08
81812;BME280;71243;51.848;5.768;2024-02-21T02:43:19;102124.88;;;9.66;89.81
81812;BME280;71243;51.848;5.768;2024-02-21T02:45:44;102118.19;;;9.73;89.78
81812;BME280;71243;51.848;5.768;2024-02-21T02:48:09;102120.03;;;9.60;90.26
81812;BME280;71243;51.848;5.768;2024-02-21T02:50:35;102120.25;;;9.57;90.63
81812;BME280;71243;51.848;5.768;2024-02-21T02:53:00;102110.34;;;9.48;90.39
81812;BME280;71243;51.848;5.768;2024-02-21T02:55:25;102122.66;;;9.60;90.25
81812;BME280;71243;51.848;5.768;2024-02-21T02:57:50;102122.88;;;9.57;90.26
81812;BME280;71243;51.848;5.768;2024-02-21T03:00:16;102125.63;;;9.56;90.32
81812;BME280;71243;51.848;5.768;2024-02-21T03:02:42;102114.13;;;9.57;90.25
81812;BME280;71243;51.848;5.768;2024-02-21T03:05:15;102116.22;;;9.64;90.08
81812;BME280;71243;51.848;5.768;2024-02-21T03:07:41;102107.13;;;9.68;89.94
81812;BME280;71243;51.848;5.768;2024-02-21T03:10:07;102105.88;;;9.61;90.04
81812;BME280;71243;51.848;5.768;2024-02-21T03:12:32;102106.22;;;9.57;89.96
81812;BME280;71243;51.848;5.768;2024-02-21T03:14:58;102100.81;;;9.58;90.35
81812;BME280;71243;51.848;5.768;2024-02-21T03:17:24;102095.22;;;9.63;90.11
81812;BME280;71243;51.848;5.768;2024-02-21T03:19:50;102095.44;;;9.60;89.70
81812;BME280;71243;51.848;5.768;2024-02-21T03:22:15;102090.56;;;9.66;89.44
81812;BME280;71243;51.848;5.768;2024-02-21T03:24:42;102105.44;;;9.67;89.48
81812;BME280;71243;51.848;5.768;2024-02-21T03:27:07;102097.84;;;9.63;89.73
81812;BME280;71243;51.848;5.768;2024-02-21T03:29:32;102093.75;;;9.59;90.00
81812;BME280;71243;51.848;5.768;2024-02-21T03:31:57;102092.19;;;9.56;89.64
81812;BME280;71243;51.848;5.768;2024-02-21T03:34:22;102089.22;;;9.61;89.44
81812;BME280;71243;51.848;5.768;2024-02-21T03:36:48;102077.59;;;9.63;89.14
81812;BME280;71243;51.848;5.768;2024-02-21T03:39:13;102076.09;;;9.72;88.93
81812;BME280;71243;51.848;5.768;2024-02-21T03:41:38;102071.97;;;9.68;88.73
81812;BME280;71243;51.848;5.768;2024-02-21T03:44:03;102068.09;;;9.61;89.55
81812;BME280;71243;51.848;5.768;2024-02-21T03:46:29;102064.84;;;9.57;89.43
81812;BME280;71243;51.848;5.768;2024-02-21T03:48:54;102066.94;;;9.65;88.98
81812;BME280;71243;51.848;5.768;2024-02-21T03:51:19;102056.88;;;9.70;89.05
81812;BME280;71243;51.848;5.768;2024-02-21T03:53:44;102056.50;;;9.63;89.25
81812;BME280;71243;51.848;5.768;2024-02-21T03:56:10;102057.97;;;9.55;89.26
81812;BME280;71243;51.848;5.768;2024-02-21T03:58:35;102062.59;;;9.64;89.18
81812;BME280;71243;51.848;5.768;2024-02-21T04:01:01;102054.47;;;9.67;88.90
81812;BME280;71243;51.848;5.768;2024-02-21T04:03:26;102058.78;;;9.68;89.02
81812;BME280;71243;51.848;5.768;2024-02-21T04:05:51;102049.91;;;9.69;89.09
81812;BME280;71243;51.848;5.768;2024-02-21T04:08:16;102051.72;;;9.68;89.03
81812;BME280;71243;51.848;5.768;2024-02-21T04:10:42;102049.19;;;9.67;88.90
81812;BME280;71243;51.848;5.768;2024-02-21T04:13:07;102055.28;;;9.67;89.18
81812;BME280;71243;51.848;5.768;2024-02-21T04:15:32;102049.75;;;9.59;89.27
81812;BME280;71243;51.848;5.768;2024-02-21T04:17:57;102047.88;;;9.72;88.73
81812;BME280;71243;51.848;5.768;2024-02-21T04:20:22;102048.34;;;9.66;88.88
81812;BME280;71243;51.848;5.768;2024-02-21T04:22:48;102050.50;;;9.72;88.80
81812;BME280;71243;51.848;5.768;2024-02-21T04:25:13;102048.00;;;9.71;88.55
81812;BME280;71243;51.848;5.768;2024-02-21T04:27:39;102051.91;;;9.65;89.05
81812;BME280;71243;51.848;5.768;2024-02-21T04:30:05;102039.34;;;9.69;88.97
81812;BME280;71243;51.848;5.768;2024-02-21T04:32:30;102034.66;;;9.61;89.02
81812;BME280;71243;51.848;5.768;2024-02-21T04:34:55;102044.72;;;9.67;88.97
81812;BME280;71243;51.848;5.768;2024-02-21T04:37:21;102045.34;;;9.71;88.55
81812;BME280;71243;51.848;5.768;2024-02-21T04:39:46;102042.44;;;9.63;88.70
81812;BME280;71243;51.848;5.768;2024-02-21T04:42:11;102045.97;;;9.74;88.47
81812;BME280;71243;51.848;5.768;2024-02-21T04:44:37;102043.19;;;9.65;88.97
81812;BME280;71243;51.848;5.768;2024-02-21T04:47:02;102047.50;;;9.66;88.69
81812;BME280;71243;51.848;5.768;2024-02-21T04:49:28;102047.66;;;9.75;88.29
81812;BME280;71243;51.848;5.768;2024-02-21T04:51:53;102040.06;;;9.71;88.59
81812;BME280;71243;51.848;5.768;2024-02-21T04:54:18;102029.63;;;9.69;88.35
81812;BME280;71243;51.848;5.768;2024-02-21T04:56:43;102026.06;;;9.70;88.58
81812;BME280;71243;51.848;5.768;2024-02-21T04:59:08;102016.56;;;9.68;88.41
81812;BME280;71243;51.848;5.768;2024-02-21T05:01:34;102009.44;;;9.57;89.07
81812;BME280;71243;51.848;5.768;2024-02-21T05:03:59;102005.38;;;9.64;89.11
81812;BME280;71243;51.848;5.768;2024-02-21T05:06:24;102008.41;;;9.71;88.75
81812;BME280;71243;51.848;5.768;2024-02-21T05:08:49;102008.75;;;9.66;88.73
81812;BME280;71243;51.848;5.768;2024-02-21T05:11:15;101988.09;;;9.60;88.85
81812;BME280;71243;51.848;5.768;2024-02-21T05:13:40;101985.88;;;9.67;88.69
81812;BME280;71243;51.848;5.768;2024-02-21T05:16:05;101985.69;;;9.57;88.87
81812;BME280;71243;51.848;5.768;2024-02-21T05:18:31;101986.66;;;9.56;88.94
81812;BME280;71243;51.848;5.768;2024-02-21T05:20:56;101988.09;;;9.60;88.93
81812;BME280;71243;51.848;5.768;2024-02-21T05:23:21;101994.34;;;9.59;88.99
81812;BME280;71243;51.848;5.768;2024-02-21T05:25:46;101989.91;;;9.60;88.93
81812;BME280;71243;51.848;5.768;2024-02-21T05:28:11;101983.06;;;9.57;89.67
81812;BME280;71243;51.848;5.768;2024-02-21T05:30:37;101975.50;;;9.64;88.83
81812;BME280;71243;51.848;5.768;2024-02-21T05:33:05;101971.16;;;9.52;89.31
81812;BME280;71243;51.848;5.768;2024-02-21T05:35:31;101967.00;;;9.60;89.39
81812;BME280;71243;51.848;5.768;2024-02-21T05:37:56;101960.03;;;9.59;89.26
81812;BME280;71243;51.848;5.768;2024-02-21T05:40:21;101973.34;;;9.58;89.48
81812;BME280;71243;51.848;5.768;2024-02-21T05:42:46;101960.19;;;9.69;88.89
81812;BME280;71243;51.848;5.768;2024-02-21T05:45:12;101964.59;;;9.57;88.94
81812;BME280;71243;51.848;5.768;2024-02-21T05:47:37;101953.19;;;9.57;89.42
81812;BME280;71243;51.848;5.768;2024-02-21T05:50:02;101950.94;;;9.63;88.92
81812;BME280;71243;51.848;5.768;2024-02-21T05:52:28;101938.38;;;9.67;88.63
81812;BME280;71243;51.848;5.768;2024-02-21T05:54:53;101945.88;;;9.60;88.73
81812;BME280;71243;51.848;5.768;2024-02-21T05:57:18;101935.25;;;9.73;88.04
81812;BME280;71243;51.848;5.768;2024-02-21T05:59:43;101929.13;;;9.72;87.73
81812;BME280;71243;51.848;5.768;2024-02-21T06:02:08;101934.63;;;9.69;87.93
81812;BME280;71243;51.848;5.768;2024-02-21T06:04:34;101928.75;;;9.66;88.17
81812;BME280;71243;51.848;5.768;2024-02-21T06:06:59;101924.94;;;9.70;88.11
81812;BME280;71243;51.848;5.768;2024-02-21T06:09:25;101930.44;;;9.67;88.13
81812;BME280;71243;51.848;5.768;2024-02-21T06:11:50;101924.94;;;9.70;87.91
81812;BME280;71243;51.848;5.768;2024-02-21T06:14:15;101920.22;;;9.62;88.11
81812;BME280;71243;51.848;5.768;2024-02-21T06:16:40;101913.88;;;9.65;88.02
81812;BME280;71243;51.848;5.768;2024-02-21T06:19:05;101912.19;;;9.64;87.96
81812;BME280;71243;51.848;5.768;2024-02-21T06:21:31;101920.22;;;9.62;87.93
81812;BME280;71243;51.848;5.768;2024-02-21T06:23:56;101914.59;;;9.56;87.90
81812;BME280;71243;51.848;5.768;2024-02-21T06:26:21;101904.50;;;9.61;87.51
81812;BME280;71243;51.848;5.768;2024-02-21T06:28:46;101904.28;;;9.64;88.04
81812;BME280;71243;51.848;5.768;2024-02-21T06:31:12;101908.25;;;9.69;87.78
81812;BME280;71243;51.848;5.768;2024-02-21T06:33:37;101912.56;;;9.59;87.72
81812;BME280;71243;51.848;5.768;2024-02-21T06:36:02;101915.91;;;9.61;87.92
81812;BME280;71243;51.848;5.768;2024-02-21T06:38:27;101914.00;;;9.63;87.73
81812;BME280;71243;51.848;5.768;2024-02-21T06:40:53;101913.16;;;9.63;87.84
81812;BME280;71243;51.848;5.768;2024-02-21T06:43:19;101918.44;;;9.63;88.00
81812;BME280;71243;51.848;5.768;2024-02-21T06:45:45;101917.09;;;9.57;87.70
81812;BME280;71243;51.848;5.768;2024-02-21T06:48:10;101914.63;;;9.67;87.42
81812;BME280;71243;51.848;5.768;2024-02-21T06:50:35;101914.47;;;9.57;88.10
81812;BME280;71243;51.848;5.768;2024-02-21T06:53:00;101919.63;;;9.59;87.78
81812;BME280;71243;51.848;5.768;2024-02-21T06:55:26;101919.13;;;9.54;87.78
81812;BME280;71243;51.848;5.768;2024-02-21T06:57:51;101913.16;;;9.63;87.62
81812;BME280;71243;51.848;5.768;2024-02-21T07:00:16;101914.47;;;9.57;87.76
81812;BME280;71243;51.848;5.768;2024-02-21T07:02:42;101907.75;;;9.64;87.40
81812;BME280;71243;51.848;5.768;2024-02-21T07:05:07;101903.22;;;9.66;87.37
81812;BME280;71243;51.848;5.768;2024-02-21T07:07:32;101907.97;;;9.50;87.69
81812;BME280;71243;51.848;5.768;2024-02-21T07:09:58;101909.44;;;9.54;87.98
81812;BME280;71243;51.848;5.768;2024-02-21T07:12:23;101902.84;;;9.60;87.58
81812;BME280;71243;51.848;5.768;2024-02-21T07:14:48;101899.47;;;9.58;87.54
81812;BME280;71243;51.848;5.768;2024-02-21T07:17:13;101903.19;;;9.55;87.83
81812;BME280;71243;51.848;5.768;2024-02-21T07:19:38;101899.59;;;9.56;87.74
81812;BME280;71243;51.848;5.768;2024-02-21T07:22:04;101898.25;;;9.51;87.97
81812;BME280;71243;51.848;5.768;2024-02-21T07:24:29;101894.53;;;9.53;87.75
81812;BME280;71243;51.848;5.768;2024-02-21T07:26:54;101877.03;;;9.52;88.07
81812;BME280;71243;51.848;5.768;2024-02-21T07:29:19;101876.44;;;9.49;87.81
81812;BME280;71243;51.848;5.768;2024-02-21T07:31:45;101877.41;;;9.59;87.40
81812;BME280;71243;51.848;5.768;2024-02-21T07:34:10;101875.75;;;9.58;87.87
81812;BME280;71243;51.848;5.768;2024-02-21T07:36:36;101881.94;;;9.57;87.58
81812;BME280;71243;51.848;5.768;2024-02-21T07:39:01;101867.22;;;9.54;87.83
81812;BME280;71243;51.848;5.768;2024-02-21T07:41:27;101870.06;;;9.51;87.76
81812;BME280;71243;51.848;5.768;2024-02-21T07:43:52;101864.81;;;9.62;86.94
81812;BME280;71243;51.848;5.768;2024-02-21T07:46:20;101864.94;;;9.61;87.32
81812;BME280;71243;51.848;5.768;2024-02-21T07:48:46;101856.06;;;9.62;87.00
81812;BME280;71243;51.848;5.768;2024-02-21T07:51:11;101853.53;;;9.60;87.30
81812;BME280;71243;51.848;5.768;2024-02-21T07:53:36;101848.47;;;9.46;87.69
81812;BME280;71243;51.848;5.768;2024-02-21T07:56:01;101835.69;;;9.53;87.69
81812;BME280;71243;51.848;5.768;2024-02-21T07:58:27;101827.16;;;9.49;87.99
81812;BME280;71243;51.848;5.768;2024-02-21T08:00:52;101828.38;;;9.56;87.49
81812;BME280;71243;51.848;5.768;2024-02-21T08:03:17;101827.88;;;9.62;87.12
81812;BME280;71243;51.848;5.768;2024-02-21T08:05:43;101821.41;;;9.55;87.53
81812;BME280;71243;51.848;5.768;2024-02-21T08:08:08;101817.91;;;9.55;87.38
81812;BME280;71243;51.848;5.768;2024-02-21T08:10:33;101811.94;;;9.53;87.44
81812;BME280;71243;51.848;5.768;2024-02-21T08:12:58;101811.94;;;9.53;87.67
81812;BME280;71243;51.848;5.768;2024-02-21T08:15:24;101808.56;;;9.62;87.41
81812;BME280;71243;51.848;5.768;2024-02-21T08:17:49;101817.81;;;9.56;87.56
81812;BME280;71243;51.848;5.768;2024-02-21T08:20:14;101816.38;;;9.52;87.98
81812;BME280;71243;51.848;5.768;2024-02-21T08:22:39;101807.03;;;9.59;87.43
81812;BME280;71243;51.848;5.768;2024-02-21T08:25:05;101798.00;;;9.62;87.40
81812;BME280;71243;51.848;5.768;2024-02-21T08:27:30;101799.09;;;9.59;87.54
81812;BME280;71243;51.848;5.768;2024-02-21T08:29:55;101802.00;;;9.56;87.67
81812;BME280;71243;51.848;5.768;2024-02-21T08:32:20;101803.78;;;9.56;87.34
81812;BME280;71243;51.848;5.768;2024-02-21T08:34:46;101793.34;;;9.65;87.30
81812;BME280;71243;51.848;5.768;2024-02-21T08:37:11;101789.88;;;9.65;87.00
81812;BME280;71243;51.848;5.768;2024-02-21T08:39:36;101787.59;;;9.71;86.79
81812;BME280;71243;51.848;5.768;2024-02-21T08:42:01;101793.34;;;9.65;86.98
81812;BME280;71243;51.848;5.768;2024-02-21T08:44:28;101776.91;;;9.62;86.95
81812;BME280;71243;51.848;5.768;2024-02-21T08:46:53;101776.22;;;9.60;87.14
81812;BME280;71243;51.848;5.768;2024-02-21T08:49:18;101775.72;;;9.66;86.97
81812;BME280;71243;51.848;5.768;2024-02-21T08:51:44;101766.22;;;9.74;87.21
81812;BME280;71243;51.848;5.768;2024-02-21T08:54:09;101771.03;;;9.69;87.48
81812;BME280;71243;51.848;5.768;2024-02-21T08:56:34;101762.06;;;9.72;86.23
81812;BME280;71243;51.848;5.768;2024-02-21T08:58:59;101757.84;;;9.69;86.80
81812;BME280;71243;51.848;5.768;2024-02-21T09:01:26;101754.63;;;9.77;86.59
81812;BME280;71243;51.848;5.768;2024-02-21T09:03:51;101743.22;;;9.76;86.78
81812;BME280;71243;51.848;5.768;2024-02-21T09:06:16;101739.75;;;9.65;86.76
81812;BME280;71243;51.848;5.768;2024-02-21T09:08:42;101744.53;;;9.71;86.51
81812;BME280;71243;51.848;5.768;2024-02-21T09:11:07;101731.72;;;9.77;86.71
81812;BME280;71243;51.848;5.768;2024-02-21T09:13:32;101736.84;;;9.79;86.77
81812;BME280;71243;51.848;5.768;2024-02-21T09:15:57;101736.00;;;9.78;86.36
81812;BME280;71243;51.848;5.768;2024-02-21T09:18:22;101735.16;;;9.78;86.31
81812;BME280;71243;51.848;5.768;2024-02-21T09:20:48;101729.66;;;9.81;86.18
81812;BME280;71243;51.848;5.768;2024-02-21T09:23:13;101731.06;;;9.85;86.06
81812;BME280;71243;51.848;5.768;2024-02-21T09:25:38;101726.63;;;9.96;85.67
81812;BME280;71243;51.848;5.768;2024-02-21T09:28:04;101730.69;;;10.00;85.78
81812;BME280;71243;51.848;5.768;2024-02-21T09:30:29;101726.97;;;10.03;85.67
81812;BME280;71243;51.848;5.768;2024-02-21T09:32:54;101724.09;;;10.06;85.56
81812;BME280;71243;51.848;5.768;2024-02-21T09:35:20;101722.19;;;9.97;85.18
81812;BME280;71243;51.848;5.768;2024-02-21T09:37:45;101708.50;;;10.03;85.31
81812;BME280;71243;51.848;5.768;2024-02-21T09:40:11;101718.34;;;10.12;85.39
81812;BME280;71243;51.848;5.768;2024-02-21T09:42:40;101711.84;;;10.05;85.07
81812;BME280;71243;51.848;5.768;2024-02-21T09:45:08;101712.69;;;10.06;84.91
81812;BME280;71243;51.848;5.768;2024-02-21T09:47:43;101703.59;;;10.10;84.80
81812;BME280;71243;51.848;5.768;2024-02-21T09:50:09;101693.50;;;10.04;84.70
81812;BME280;71243;51.848;5.768;2024-02-21T09:52:35;101690.59;;;10.07;84.62
81812;BME280;71243;51.848;5.768;2024-02-21T09:55:01;101692.78;;;10.02;85.55
81812;BME280;71243;51.848;5.768;2024-02-21T09:57:27;101682.72;;;9.95;85.41
81812;BME280;71243;51.848;5.768;2024-02-21T09:59:52;101681.72;;;10.08;85.35
81812;BME280;71243;51.848;5.768;2024-02-21T10:02:17;101677.88;;;10.00;85.63
81812;BME280;71243;51.848;5.768;2024-02-21T10:04:43;101673.13;;;9.94;86.35
81812;BME280;71243;51.848;5.768;2024-02-21T10:07:08;101663.47;;;10.05;86.00
81812;BME280;71243;51.848;5.768;2024-02-21T10:09:33;101660.66;;;9.96;86.67
81812;BME280;71243;51.848;5.768;2024-02-21T10:12:09;101655.09;;;9.99;86.86
81812;BME280;71243;51.848;5.768;2024-02-21T10:14:34;101640.59;;;9.94;86.59
81812;BME280;71243;51.848;5.768;2024-02-21T10:16:59;101642.66;;;9.90;87.77
81812;BME280;71243;51.848;5.768;2024-02-21T10:19:25;101640.47;;;9.95;88.15
81812;BME280;71243;51.848;5.768;2024-02-21T10:22:01;101626.22;;;9.87;88.24
81812;BME280;71243;51.848;5.768;2024-02-21T10:24:27;101618.53;;;9.95;88.64
81812;BME280;71243;51.848;5.768;2024-02-21T10:27:03;101623.59;;;9.87;89.36
81812;BME280;71243;51.848;5.768;2024-02-21T10:29:30;101603.81;;;9.81;89.40
81812;BME280;71243;51.848;5.768;2024-02-21T10:32:11;101603.66;;;9.83;89.44
81812;BME280;71243;51.848;5.768;2024-02-21T10:34:38;101592.97;;;9.95;89.14
81812;BME280;71243;51.848;5.768;2024-02-21T10:37:08;101582.91;;;9.89;89.64
81812;BME280;71243;51.848;5.768;2024-02-21T10:39:38;101581.31;;;9.98;89.07
81812;BME280;71243;51.848;5.768;2024-02-21T10:42:04;101579.63;;;9.97;89.09
81812;BME280;71243;51.848;5.768;2024-02-21T10:44:30;101578.84;;;9.85;89.79
81812;BME280;71243;51.848;5.768;2024-02-21T10:46:56;101575.72;;;9.91;89.51
81812;BME280;71243;51.848;5.768;2024-02-21T10:49:26;101562.28;;;9.83;90.13
81812;BME280;71243;51.848;5.768;2024-02-21T10:51:54;101563.09;;;9.95;89.28
81812;BME280;71243;51.848;5.768;2024-02-21T10:54:39;101547.00;;;9.98;89.38
81812;BME280;71243;51.848;5.768;2024-02-21T10:57:05;101543.19;;;9.91;89.36
81812;BME280;71243;51.848;5.768;2024-02-21T10:59:32;101536.28;;;9.79;90.06
81812;BME280;71243;51.848;5.768;2024-02-21T11:01:58;101517.88;;;9.88;89.94
81812;BME280;71243;51.848;5.768;2024-02-21T11:04:24;101506.38;;;9.89;89.08
81812;BME280;71243;51.848;5.768;2024-02-21T11:06:50;101488.94;;;9.98;89.07
81812;BME280;71243;51.848;5.768;2024-02-21T11:09:16;101473.69;;;9.81;88.81
81812;BME280;71243;51.848;5.768;2024-02-21T11:11:43;101456.78;;;9.72;89.09
81812;BME280;71243;51.848;5.768;2024-02-21T11:14:18;101463.47;;;9.97;87.81
81812;BME280;71243;51.848;5.768;2024-02-21T11:16:44;101464.00;;;9.91;88.55
81812;BME280;71243;51.848;5.768;2024-02-21T11:19:22;101474.16;;;9.95;87.83
81812;BME280;71243;51.848;5.768;2024-02-21T11:21:48;101479.31;;;9.97;87.03
81812;BME280;71243;51.848;5.768;2024-02-21T11:24:14;101477.59;;;10.07;87.13
81812;BME280;71243;51.848;5.768;2024-02-21T11:26:50;101490.88;;;10.17;86.18
81812;BME280;71243;51.848;5.768;2024-02-21T11:29:23;101494.94;;;10.21;85.57
81812;BME280;71243;51.848;5.768;2024-02-21T11:31:48;101485.47;;;10.18;85.54
81812;BME280;71243;51.848;5.768;2024-02-21T11:34:18;101485.09;;;10.23;86.01
81812;BME280;71243;51.848;5.768;2024-02-21T11:36:49;101477.03;;;10.24;85.17
81812;BME280;71243;51.848;5.768;2024-02-21T11:39:18;101463.69;;;10.26;84.86
81812;BME280;71243;51.848;5.768;2024-02-21T11:41:43;101462.69;;;10.17;84.87
81812;BME280;71243;51.848;5.768;2024-02-21T11:44:08;101453.00;;;10.27;83.91
81812;BME280;71243;51.848;5.768;2024-02-21T11:46:33;101441.72;;;10.25;84.53
81812;BME280;71243;51.848;5.768;2024-02-21T11:48:58;101458.19;;;10.38;83.95
81812;BME280;71243;51.848;5.768;2024-02-21T11:51:27;101446.41;;;10.42;83.00
81812;BME280;71243;51.848;5.768;2024-02-21T11:53:52;101448.19;;;10.42;82.79
81812;BME280;71243;51.848;5.768;2024-02-21T11:56:18;101441.84;;;10.44;83.02
81812;BME280;71243;51.848;5.768;2024-02-21T11:58:43;101446.00;;;10.47;82.65
81812;BME280;71243;51.848;5.768;2024-02-21T12:01:09;101417.06;;;10.36;82.55
81812;BME280;71243;51.848;5.768;2024-02-21T12:03:34;101416.69;;;10.50;82.46
81812;BME280;71243;51.848;5.768;2024-02-21T12:06:00;101413.91;;;10.51;82.70
81812;BME280;71243;51.848;5.768;2024-02-21T12:08:25;101403.50;;;10.59;82.05
81812;BME280;71243;51.848;5.768;2024-02-21T12:10:50;101392.78;;;10.61;81.81
81812;BME280;71243;51.848;5.768;2024-02-21T12:13:15;101379.59;;;10.70;82.10
81812;BME280;71243;51.848;5.768;2024-02-21T12:15:41;101351.31;;;10.52;83.01
81812;BME280;71243;51.848;5.768;2024-02-21T12:18:06;101350.38;;;10.62;82.07
81812;BME280;71243;51.848;5.768;2024-02-21T12:20:31;101325.50;;;10.65;82.32
81812;BME280;71243;51.848;5.768;2024-02-21T12:22:56;101334.56;;;10.81;81.63
81812;BME280;71243;51.848;5.768;2024-02-21T12:25:24;101321.19;;;10.73;82.07
81812;BME280;71243;51.848;5.768;2024-02-21T12:27:50;101311.03;;;10.88;82.16
81812;BME280;71243;51.848;5.768;2024-02-21T12:30:16;101297.84;;;10.88;81.24
81812;BME280;71243;51.848;5.768;2024-02-21T12:32:41;101293.06;;;11.01;80.87
81812;BME280;71243;51.848;5.768;2024-02-21T12:35:07;101286.00;;;11.01;80.49
81812;BME280;71243;51.848;5.768;2024-02-21T12:37:32;101277.09;;;10.93;80.97
81812;BME280;71243;51.848;5.768;2024-02-21T12:39:57;101275.84;;;10.97;81.06
81812;BME280;71243;51.848;5.768;2024-02-21T12:42:22;101271.38;;;10.97;80.55
81812;BME280;71243;51.848;5.768;2024-02-21T12:44:48;101264.84;;;11.01;80.19
81812;BME280;71243;51.848;5.768;2024-02-21T12:47:13;101256.34;;;11.07;79.69
81812;BME280;71243;51.848;5.768;2024-02-21T12:49:38;101247.31;;;11.00;79.67